sensor_id;sensor_type;location;lat;lon;timestamp;P1;P2;P0
47709;PMS7003;33473;51.640;5.892;2023-04-21T00:12:34;26.29;23.34;14.94
47709;PMS7003;33473;51.640;5.892;2023-04-21T00:25:54;26.53;23.77;14.62
47709;PMS7003;33473;51.640;5.892;2023-04-21T00:39:13;28.09;24.75;14.83
47709;PMS7003;33473;51.640;5.892;2023-04-21T00:52:33;26.89;23.99;14.4
47709;PMS7003;33473;51.640;5.892;2023-04-21T01:05:53;26.29;23.44;14.62
47709;PMS7003;33473;51.640;5.892;2023-04-21T01:19:12;28.45;24.86;14.94
47709;PMS7003;33473;51.640;5.892;2023-04-21T01:32:32;28.57;24.86;15.27
47709;PMS7003;33473;51.640;5.892;2023-04-21T01:45:52;28.81;24.97;15.27
47709;PMS7003;33473;51.640;5.892;2023-04-21T01:59:11;29.17;25.08;15.05
47709;PMS7003;33473;51.640;5.892;2023-04-21T02:12:31;29.65;25.73;15.38
47709;PMS7003;33473;51.640;5.892;2023-04-21T02:25:51;31.21;26.5;15.92
47709;PMS7003;33473;51.640;5.892;2023-04-21T02:39:10;30.97;26.5;15.81
47709;PMS7003;33473;51.640;5.892;2023-04-21T02:52:30;33.74;28.02;16.25
47709;PMS7003;33473;51.640;5.892;2023-04-21T03:05:50;32.77;27.26;16.14
47709;PMS7003;33473;51.640;5.892;2023-04-21T03:19:10;33.86;28.35;16.36
47709;PMS7003;33473;51.640;5.892;2023-04-21T03:32:29;34.82;28.57;16.36
47709;PMS7003;33473;51.640;5.892;2023-04-21T03:45:49;34.22;28.57;16.8
47709;PMS7003;33473;51.640;5.892;2023-04-21T03:59:09;35.42;29.22;16.58
47709;PMS7003;33473;51.640;5.892;2023-04-21T04:12:28;34.82;29.0;16.8
47709;PMS7003;33473;51.640;5.892;2023-04-21T04:25:48;35.06;28.89;16.8
47709;PMS7003;33473;51.640;5.892;2023-04-21T04:39:08;36.62;29.88;17.23
47709;PMS7003;33473;51.640;5.892;2023-04-21T04:52:27;36.74;30.42;17.34
47709;PMS7003;33473;51.640;5.892;2023-04-21T05:05:47;37.94;31.18;18.1
47709;PMS7003;33473;51.640;5.892;2023-04-21T05:19:07;37.94;31.4;17.78
47709;PMS7003;33473;51.640;5.892;2023-04-21T05:32:26;38.18;32.05;18.1
47709;PMS7003;33473;51.640;5.892;2023-04-21T05:45:46;37.82;30.75;17.99
47709;PMS7003;33473;51.640;5.892;2023-04-21T05:59:06;38.42;31.84;18.21
47709;PMS7003;33473;51.640;5.892;2023-04-21T06:12:25;37.58;31.18;18.54
47709;PMS7003;33473;51.640;5.892;2023-04-21T06:25:45;37.46;30.86;17.99
47709;PMS7003;33473;51.640;5.892;2023-04-21T06:39:05;36.38;29.98;17.89
47709;PMS7003;33473;51.640;5.892;2023-04-21T06:52:24;36.5;29.33;17.78
47709;PMS7003;33473;51.640;5.892;2023-04-21T07:05:44;33.25;27.8;16.9
47709;PMS7003;33473;51.640;5.892;2023-04-21T07:19:04;32.65;26.61;16.69
47709;PMS7003;33473;51.640;5.892;2023-04-21T07:32:23;29.89;25.52;15.92
47709;PMS7003;33473;51.640;5.892;2023-04-21T07:45:43;29.53;25.52;16.03
47709;PMS7003;33473;51.640;5.892;2023-04-21T07:59:03;26.89;23.88;15.05
47709;PMS7003;33473;51.640;5.892;2023-04-21T08:12:23;25.33;22.68;14.72
47709;PMS7003;33473;51.640;5.892;2023-04-21T08:25:42;24.97;22.46;14.18
47709;PMS7003;33473;51.640;5.892;2023-04-21T08:39:02;27.13;23.99;15.16
47709;PMS7003;33473;51.640;5.892;2023-04-21T08:52:22;26.29;23.44;14.83
47709;PMS7003;33473;51.640;5.892;2023-04-21T09:05:41;25.33;22.79;14.07
47709;PMS7003;33473;51.640;5.892;2023-04-21T09:19:01;25.69;22.57;14.51
47709;PMS7003;33473;51.640;5.892;2023-04-21T09:32:21;23.89;21.81;13.96
47709;PMS7003;33473;51.640;5.892;2023-04-21T09:45:40;26.29;22.9;14.62
47709;PMS7003;33473;51.640;5.892;2023-04-21T09:59:00;28.33;24.75;15.71
47709;PMS7003;33473;51.640;5.892;2023-04-21T10:12:20;28.69;24.97;15.81
47709;PMS7003;33473;51.640;5.892;2023-04-21T10:25:39;25.21;22.57;14.51
47709;PMS7003;33473;51.640;5.892;2023-04-21T10:38:59;27.97;24.53;15.92
47709;PMS7003;33473;51.640;5.892;2023-04-21T10:52:19;28.69;24.97;16.25
47709;PMS7003;33473;51.640;5.892;2023-04-21T11:05:38;28.45;24.75;16.36
47709;PMS7003;33473;51.640;5.892;2023-04-21T11:18:58;29.53;25.41;16.8
47709;PMS7003;33473;51.640;5.892;2023-04-21T11:32:18;30.01;25.62;17.23
47709;PMS7003;33473;51.640;5.892;2023-04-21T11:45:37;30.37;25.84;17.45
47709;PMS7003;33473;51.640;5.892;2023-04-21T11:58:57;28.81;24.86;16.8
47709;PMS7003;33473;51.640;5.892;2023-04-21T12:12:17;28.33;24.75;16.47
47709;PMS7003;33473;51.640;5.892;2023-04-21T12:25:36;28.57;24.86;16.47
47709;PMS7003;33473;51.640;5.892;2023-04-21T12:38:56;29.17;25.3;16.8
47709;PMS7003;33473;51.640;5.892;2023-04-21T12:52:16;30.25;25.62;16.8
47709;PMS7003;33473;51.640;5.892;2023-04-21T13:05:35;29.53;25.41;16.69
47709;PMS7003;33473;51.640;5.892;2023-04-21T13:18:55;29.65;25.08;16.25
47709;PMS7003;33473;51.640;5.892;2023-04-21T13:32:15;27.97;24.43;16.25
47709;PMS7003;33473;51.640;5.892;2023-04-21T13:45:34;27.37;24.21;15.71
47709;PMS7003;33473;51.640;5.892;2023-04-21T13:58:54;27.01;23.44;15.49
47709;PMS7003;33473;51.640;5.892;2023-04-21T14:12:14;24.85;22.25;14.51
47709;PMS7003;33473;51.640;5.892;2023-04-21T14:25:33;24.01;21.92;14.29
47709;PMS7003;33473;51.640;5.892;2023-04-21T14:38:53;22.33;20.61;13.53
47709;PMS7003;33473;51.640;5.892;2023-04-21T14:52:12;19.33;18.87;12.54
47709;PMS7003;33473;51.640;5.892;2023-04-21T15:05:32;17.41;17.99;12.0
47709;PMS7003;33473;51.640;5.892;2023-04-21T15:18:52;16.81;17.56;11.89
47709;PMS7003;33473;51.640;5.892;2023-04-21T15:32:11;17.77;18.21;12.0
47709;PMS7003;33473;51.640;5.892;2023-04-21T15:45:31;13.81;15.81;10.69
47709;PMS7003;33473;51.640;5.892;2023-04-21T15:58:51;14.17;15.92;10.69
47709;PMS7003;33473;51.640;5.892;2023-04-21T16:12:10;14.29;16.03;10.69
47709;PMS7003;33473;51.640;5.892;2023-04-21T16:25:30;8.77;11.02;7.75
47709;PMS7003;33473;51.640;5.892;2023-04-21T16:38:50;12.37;14.29;9.71
47709;PMS7003;33473;51.640;5.892;2023-04-21T16:52:10;11.53;13.63;9.06
47709;PMS7003;33473;51.640;5.892;2023-04-21T17:05:29;10.93;13.09;8.95
47709;PMS7003;33473;51.640;5.892;2023-04-21T17:18:49;0.01;2.19;1.54
47709;PMS7003;33473;51.640;5.892;2023-04-21T17:32:09;0.01;1.64;1.21
47709;PMS7003;33473;51.640;5.892;2023-04-21T17:45:28;0.01;2.62;2.08
47709;PMS7003;33473;51.640;5.892;2023-04-21T17:58:48;0.01;2.95;2.19
47709;PMS7003;33473;51.640;5.892;2023-04-21T18:12:08;1.68;4.7;3.17
47709;PMS7003;33473;51.640;5.892;2023-04-21T18:25:27;3.36;5.9;4.15
47709;PMS7003;33473;51.640;5.892;2023-04-21T18:38:47;2.52;5.57;4.04
47709;PMS7003;33473;51.640;5.892;2023-04-21T18:52:07;12.49;14.4;9.17
47709;PMS7003;33473;51.640;5.892;2023-04-21T19:05:26;5.05;7.64;5.46
47709;PMS7003;33473;51.640;5.892;2023-04-21T19:18:46;2.64;5.68;4.37
47709;PMS7003;33473;51.640;5.892;2023-04-21T19:32:06;3.0;5.46;4.26
47709;PMS7003;33473;51.640;5.892;2023-04-21T19:45:25;3.6;6.44;4.8
47709;PMS7003;33473;51.640;5.892;2023-04-21T19:58:45;3.97;6.88;5.35
47709;PMS7003;33473;51.640;5.892;2023-04-21T20:12:05;5.17;7.75;6.0
47709;PMS7003;33473;51.640;5.892;2023-04-21T20:25:24;5.77;8.51;6.0
47709;PMS7003;33473;51.640;5.892;2023-04-21T20:38:44;5.77;8.51;6.55
47709;PMS7003;33473;51.640;5.892;2023-04-21T20:52:04;6.49;9.17;6.77
47709;PMS7003;33473;51.640;5.892;2023-04-21T21:05:24;6.01;8.73;6.22
47709;PMS7003;33473;51.640;5.892;2023-04-21T21:18:43;8.65;10.26;6.99
47709;PMS7003;33473;51.640;5.892;2023-04-21T21:32:03;1.2;4.37;3.39
47709;PMS7003;33473;51.640;5.892;2023-04-21T21:45:23;0.84;4.04;3.28
47709;PMS7003;33473;51.640;5.892;2023-04-21T21:58:42;1.56;4.04;3.17
47709;PMS7003;33473;51.640;5.892;2023-04-21T22:12:02;2.28;4.59;3.28
